Flugplatz Oberpfaffenhofen

Bericht für EDMO

vom 23.02. um 22:50 UTC

Wind 20 kt aus 270° in Böen 32 kt

Sichtweite 10 km oder mehr

aufgebrochene Bewölkung in 3600 ft

bedeckt in 4800 ft

Temperatur 12.0°C

Taupunkt 7.0°C

Luftfeuchtigkeit 71%

Luftdruck 1020 hPa

EDMO 232250Z AUTO 27020G32KT 9999 // BKN036/// OVC048/// 12/07 Q1020
Keine Prognose (TAF) verfügbar.
Impressum